createdAt,value
2023-04-19T00:00:48.910Z,11.48
2023-04-19T00:01:48.959Z,11.48
2023-04-19T00:02:49.032Z,11.48
2023-04-19T00:03:49.190Z,11.47
2023-04-19T00:04:48.940Z,11.47
2023-04-19T00:05:48.876Z,11.47
2023-04-19T00:06:48.846Z,11.45
2023-04-19T00:07:48.874Z,11.45
2023-04-19T00:08:48.868Z,11.44
2023-04-19T00:09:48.871Z,11.47
2023-04-19T00:10:48.799Z,11.45
2023-04-19T00:11:48.809Z,11.44
2023-04-19T00:12:48.788Z,11.44
2023-04-19T00:13:48.815Z,11.44
2023-04-19T00:14:48.831Z,11.44
2023-04-19T00:15:48.772Z,11.45
2023-04-19T00:16:48.786Z,11.43
2023-04-19T00:17:48.817Z,11.44
2023-04-19T00:18:48.742Z,11.43
2023-04-19T00:19:48.738Z,11.41
2023-04-19T00:20:48.776Z,11.41
2023-04-19T00:21:48.724Z,11.41
2023-04-19T00:22:48.678Z,11.37
2023-04-19T00:23:48.661Z,11.37
2023-04-19T00:24:48.680Z,11.36
2023-04-19T00:25:48.638Z,11.35
2023-04-19T00:26:48.674Z,11.36
2023-04-19T00:27:48.632Z,11.37
2023-04-19T00:28:48.639Z,11.35
2023-04-19T00:29:48.600Z,11.33
2023-04-19T00:30:48.669Z,11.35
2023-04-19T00:31:48.617Z,11.35
2023-04-19T00:32:48.684Z,11.33
2023-04-19T00:33:48.554Z,11.33
2023-04-19T00:34:48.570Z,11.35
2023-04-19T00:35:48.532Z,11.36
2023-04-19T00:36:48.559Z,11.36
2023-04-19T00:37:48.524Z,11.33
2023-04-19T00:38:48.558Z,11.35
2023-04-19T00:39:48.522Z,11.33
2023-04-19T00:40:48.502Z,11.33
2023-04-19T00:41:48.512Z,11.35
2023-04-19T00:42:48.475Z,11.33
2023-04-19T00:43:48.448Z,11.32
2023-04-19T00:44:48.493Z,11.32
2023-04-19T00:45:48.438Z,11.33
2023-04-19T00:46:48.443Z,11.33
2023-04-19T00:47:48.469Z,11.33
2023-04-19T00:48:48.420Z,11.33
2023-04-19T00:49:48.406Z,11.33
2023-04-19T00:50:48.457Z,11.33
2023-04-19T00:51:48.361Z,11.33
2023-04-19T00:52:48.396Z,11.33
2023-04-19T00:53:48.348Z,11.33
2023-04-19T00:54:48.360Z,11.32
2023-04-19T00:55:48.328Z,11.33
2023-04-19T00:56:48.350Z,11.35
2023-04-19T00:57:48.298Z,11.32
2023-04-19T00:58:48.301Z,11.32
2023-04-19T00:59:48.275Z,11.30
2023-04-19T01:00:48.299Z,11.32
2023-04-19T01:01:48.346Z,11.30
2023-04-19T01:02:48.391Z,11.29
2023-04-19T01:03:48.337Z,11.27
2023-04-19T01:04:48.254Z,11.26
2023-04-19T01:05:48.206Z,11.26
2023-04-19T01:06:48.231Z,11.26
2023-04-19T01:07:48.208Z,11.25
2023-04-19T01:08:48.231Z,11.23
2023-04-19T01:09:48.179Z,11.19
2023-04-19T01:10:48.190Z,11.19
2023-04-19T01:11:48.153Z,11.22
2023-04-19T01:12:48.152Z,11.18
2023-04-19T01:13:48.123Z,11.18
2023-04-19T01:14:48.190Z,11.15
2023-04-19T01:15:48.167Z,11.17
2023-04-19T01:16:48.110Z,11.15
2023-04-19T01:17:48.105Z,11.17
2023-04-19T01:18:48.117Z,11.14
2023-04-19T01:19:48.060Z,11.14
2023-04-19T01:20:48.090Z,11.15
2023-04-19T01:21:48.043Z,11.15
2023-04-19T01:22:48.045Z,11.14
2023-04-19T01:23:48.025Z,11.12
2023-04-19T01:24:48.021Z,11.15
2023-04-19T01:25:47.993Z,11.15
2023-04-19T01:26:48.045Z,11.17
2023-04-19T01:27:47.981Z,11.15
2023-04-19T01:28:47.981Z,11.17
2023-04-19T01:29:47.968Z,11.17
2023-04-19T06:00:46.265Z,11.17
2023-04-19T06:01:47.205Z,11.18
2023-04-19T06:02:47.316Z,11.18
2023-04-19T06:03:47.334Z,11.17
2023-04-19T06:04:47.339Z,11.18
2023-04-19T06:05:47.227Z,11.18
2023-04-19T06:06:47.126Z,11.18
2023-04-19T06:07:54.968Z,11.19
2023-04-19T06:08:47.168Z,11.22
2023-04-19T06:09:47.134Z,11.22
2023-04-19T06:10:54.899Z,11.26
2023-04-19T06:11:50.832Z,11.26
2023-04-19T06:12:47.077Z,11.26
2023-04-19T06:13:47.034Z,11.26
2023-04-19T06:14:47.081Z,11.26
2023-04-19T06:15:47.048Z,11.26
2023-04-19T06:16:47.071Z,11.27
2023-04-19T06:17:47.047Z,11.27
2023-04-19T06:18:47.010Z,11.29
2023-04-19T06:19:46.980Z,11.30
2023-04-19T06:20:46.981Z,11.30
2023-04-19T06:21:46.946Z,11.33
2023-04-19T06:22:46.967Z,11.35
2023-04-19T06:23:46.965Z,11.35
2023-04-19T06:24:46.945Z,11.36
2023-04-19T06:25:46.925Z,11.35
2023-04-19T06:26:46.913Z,11.40
2023-04-19T06:27:46.891Z,11.37
2023-04-19T06:28:46.910Z,11.37
2023-04-19T06:29:46.889Z,11.40
2023-04-19T06:30:46.880Z,11.40
2023-04-19T06:31:46.910Z,11.41
2023-04-19T06:32:46.871Z,11.45
2023-04-19T06:33:46.852Z,11.43
2023-04-19T06:34:46.846Z,11.45
2023-04-19T06:35:46.847Z,11.45
2023-04-19T06:36:46.853Z,11.45
2023-04-19T06:37:46.813Z,11.45
2023-04-19T06:38:46.858Z,11.45
2023-04-19T06:39:46.779Z,11.45
2023-04-19T06:40:46.816Z,11.45
2023-04-19T06:41:46.815Z,11.47
2023-04-19T06:42:46.744Z,11.47
2023-04-19T06:43:46.781Z,11.47
2023-04-19T06:44:46.730Z,11.50
2023-04-19T06:45:46.747Z,11.48
2023-04-19T06:46:46.747Z,11.48
2023-04-19T06:47:46.726Z,11.48
2023-04-19T06:48:46.683Z,11.47
2023-04-19T06:49:46.708Z,11.47
2023-04-19T06:50:46.698Z,11.47
2023-04-19T06:51:46.646Z,11.47
2023-04-19T06:52:46.650Z,11.47
2023-04-19T06:53:46.616Z,11.45
2023-04-19T06:54:46.634Z,11.48
2023-04-19T06:55:46.632Z,11.47
2023-04-19T06:56:46.629Z,11.50
2023-04-19T06:57:46.570Z,11.50
2023-04-19T06:58:46.572Z,11.50
2023-04-19T06:59:46.559Z,11.51
2023-04-19T07:00:46.598Z,11.52
2023-04-19T07:01:46.613Z,11.51
2023-04-19T07:02:46.623Z,11.52
2023-04-19T07:03:46.734Z,11.54
2023-04-19T07:04:46.608Z,11.54
2023-04-19T07:05:46.535Z,11.54
2023-04-19T07:06:46.630Z,11.57
2023-04-19T07:07:46.467Z,11.57
2023-04-19T07:08:50.355Z,11.57
2023-04-19T07:09:46.445Z,11.57
2023-04-19T07:10:46.445Z,11.57
2023-04-19T07:11:46.426Z,11.57
2023-04-19T07:12:46.466Z,11.55
2023-04-19T07:13:46.399Z,11.54
2023-04-19T07:14:46.427Z,11.54
2023-04-19T07:15:46.421Z,11.55
2023-04-19T07:16:46.384Z,11.54
2023-04-19T07:17:46.591Z,11.54
2023-04-19T07:18:46.409Z,11.54
2023-04-19T07:19:46.462Z,11.55
2023-04-19T07:20:46.334Z,11.57
2023-04-19T07:21:46.324Z,11.60
2023-04-19T07:22:46.311Z,11.60
2023-04-19T07:23:46.293Z,11.60
2023-04-19T07:24:46.319Z,11.59
2023-04-19T07:25:46.274Z,11.60
2023-04-19T07:26:46.279Z,11.62
2023-04-19T07:27:47.057Z,11.63
2023-04-19T07:28:46.262Z,11.65
2023-04-19T07:29:46.248Z,11.66
2023-04-19T07:30:46.230Z,11.68
2023-04-19T07:31:46.241Z,11.70
2023-04-19T07:32:46.381Z,11.73
2023-04-19T07:33:46.185Z,11.73
2023-04-19T07:34:46.190Z,11.75
2023-04-19T07:35:46.197Z,11.77
2023-04-19T07:36:46.161Z,11.78
2023-04-19T07:37:46.174Z,11.80
2023-04-19T07:38:46.143Z,11.81
2023-04-19T07:39:46.144Z,11.83
2023-04-19T07:40:46.108Z,11.83
2023-04-19T07:41:46.138Z,11.87
2023-04-19T07:42:46.094Z,11.88
2023-04-19T07:43:46.121Z,11.91
2023-04-19T07:44:46.068Z,11.91
2023-04-19T07:45:46.068Z,11.91
2023-04-19T07:46:46.137Z,11.90
2023-04-19T07:47:46.122Z,11.88
2023-04-19T07:48:46.040Z,11.90
2023-04-19T07:49:46.035Z,11.91
2023-04-19T07:50:45.998Z,11.95
2023-04-19T07:51:45.999Z,11.95
2023-04-19T07:52:46.016Z,11.97
2023-04-19T07:53:46.006Z,11.97
2023-04-19T07:54:45.958Z,12.00
2023-04-19T07:55:45.959Z,12.03
2023-04-19T07:56:45.943Z,12.02
2023-04-19T07:57:45.956Z,12.03
2023-04-19T07:58:50.904Z,12.04
2023-04-19T07:59:45.951Z,12.06
2023-04-19T08:00:45.938Z,12.07
2023-04-19T08:01:45.980Z,12.10
2023-04-19T08:02:46.301Z,12.09
2023-04-19T08:03:46.135Z,12.07
2023-04-19T08:04:46.046Z,12.09
2023-04-19T08:05:45.963Z,12.04
2023-04-19T08:06:45.856Z,12.06
2023-04-19T08:07:45.843Z,12.07
2023-04-19T08:08:45.838Z,12.09
2023-04-19T08:09:45.847Z,12.12
2023-04-19T08:10:45.791Z,12.10
2023-04-19T08:11:45.804Z,12.10
2023-04-19T08:12:57.470Z,12.10
2023-04-19T08:13:55.140Z,12.12
2023-04-19T08:14:59.254Z,12.10
2023-04-19T08:17:45.907Z,12.13
2023-04-19T08:18:45.731Z,12.13
2023-04-19T08:19:45.740Z,12.13
2023-04-19T08:20:45.681Z,12.15
2023-04-19T08:21:45.741Z,12.17
2023-04-19T08:22:45.687Z,12.17
2023-04-19T08:23:48.559Z,12.18
2023-04-19T08:24:45.666Z,12.22
2023-04-19T08:25:45.639Z,12.24
2023-04-19T08:26:45.631Z,12.24
2023-04-19T08:27:45.636Z,12.24
2023-04-19T08:28:45.615Z,12.27
2023-04-19T08:29:45.633Z,12.27
2023-04-19T08:30:45.622Z,12.28
2023-04-19T08:31:45.780Z,12.29
2023-04-19T08:32:45.644Z,12.29
2023-04-19T08:33:45.593Z,12.27
2023-04-19T08:34:45.546Z,12.27
2023-04-19T08:35:45.610Z,12.29
2023-04-19T08:36:51.923Z,12.28
2023-04-19T08:37:45.531Z,12.29
2023-04-19T08:38:49.175Z,12.29
2023-04-19T08:39:45.556Z,12.29
2023-04-19T08:40:45.469Z,12.29
2023-04-19T08:41:48.152Z,12.32
2023-04-19T08:42:45.483Z,12.32
2023-04-19T08:43:45.459Z,12.37
2023-04-19T08:44:59.674Z,12.37
2023-04-19T08:45:45.473Z,12.40
2023-04-19T08:46:45.404Z,12.42
2023-04-19T08:47:58.868Z,12.43
2023-04-19T08:48:45.422Z,12.46
2023-04-19T08:49:45.395Z,12.47
2023-04-19T08:51:00.506Z,12.49
2023-04-19T08:51:45.386Z,12.54
2023-04-19T08:52:54.754Z,12.57
2023-04-19T08:53:45.355Z,12.60
2023-04-19T08:54:45.327Z,12.64
2023-04-19T08:56:03.316Z,12.67
2023-04-19T08:56:45.303Z,12.73
2023-04-19T08:57:45.624Z,12.78
2023-04-19T08:59:03.797Z,12.80
2023-04-19T08:59:45.346Z,12.83
2023-04-19T09:00:45.256Z,12.86
2023-04-19T09:01:45.376Z,12.91
2023-04-19T09:02:47.561Z,12.94
2023-04-19T09:03:58.228Z,12.98
2023-04-19T09:04:45.470Z,13.04
2023-04-19T09:05:45.455Z,13.09
2023-04-19T09:06:45.358Z,13.11
2023-04-19T09:07:45.201Z,13.12
2023-04-19T09:08:45.179Z,13.13
2023-04-19T09:09:59.649Z,13.15
2023-04-19T09:10:45.174Z,13.15
2023-04-19T09:11:45.286Z,13.16
2023-04-19T09:12:45.127Z,13.18
2023-04-19T09:13:45.130Z,13.18
2023-04-19T09:14:57.872Z,13.19
2023-04-19T09:15:45.160Z,13.22
2023-04-19T09:16:45.092Z,13.25
2023-04-19T09:17:45.130Z,13.28
2023-04-19T09:18:56.245Z,13.33
2023-04-19T09:19:45.070Z,13.37
2023-04-19T09:20:45.102Z,13.37
2023-04-19T09:21:45.035Z,13.38
2023-04-19T09:22:45.029Z,13.44
2023-04-19T09:23:45.033Z,13.47
2023-04-19T09:26:11.259Z,13.50
2023-04-19T09:26:44.997Z,13.52
2023-04-19T09:27:44.984Z,13.53
2023-04-19T09:28:44.958Z,13.54
2023-04-19T09:29:44.951Z,13.57
2023-04-19T09:30:55.106Z,13.62
2023-04-19T09:31:51.464Z,13.65
2023-04-19T09:32:45.022Z,13.67
2023-04-19T09:33:45.015Z,13.67
2023-04-19T09:34:44.897Z,13.70
2023-04-19T09:35:44.901Z,13.72
2023-04-19T09:36:44.865Z,13.71
2023-04-19T09:38:44.889Z,13.77
2023-04-19T09:39:44.881Z,13.78
2023-04-19T09:40:44.841Z,13.77
2023-04-19T09:41:44.825Z,13.79
2023-04-19T09:43:06.944Z,13.77
2023-04-19T09:44:03.214Z,13.78
2023-04-19T09:45:20.770Z,13.79
2023-04-19T09:45:44.784Z,13.81
2023-04-19T09:46:44.820Z,13.85
2023-04-19T09:47:44.784Z,13.89
2023-04-19T09:48:44.757Z,13.96
2023-04-19T09:49:49.071Z,13.99
2023-04-19T09:50:54.829Z,14.05
2023-04-19T09:51:44.734Z,14.11
2023-04-19T09:52:44.691Z,14.18
2023-04-19T09:53:44.741Z,14.23
2023-04-19T09:54:44.702Z,14.28
2023-04-19T09:55:57.234Z,14.30
2023-04-19T09:56:44.704Z,14.40
2023-04-19T09:57:44.652Z,14.41
2023-04-19T09:58:52.565Z,14.45
2023-04-19T09:59:44.630Z,14.47
2023-04-19T10:00:49.027Z,14.47
2023-04-19T10:01:44.661Z,14.48
2023-04-19T10:02:44.638Z,14.48
2023-04-19T10:03:45.297Z,14.51
2023-04-19T10:05:44.626Z,14.53
2023-04-19T10:07:06.903Z,14.54
2023-04-19T10:07:44.671Z,14.58
2023-04-19T10:08:44.550Z,14.60
2023-04-19T10:09:52.959Z,14.59
2023-04-19T10:10:45.494Z,14.59
2023-04-19T10:11:46.944Z,14.58
2023-04-19T10:13:44.489Z,14.60
2023-04-19T10:14:44.494Z,14.63
2023-04-19T10:15:51.403Z,14.62
2023-04-19T10:16:44.475Z,14.65
2023-04-19T10:17:44.481Z,14.68
2023-04-19T10:18:44.431Z,14.65
2023-04-19T10:19:44.424Z,14.65
2023-04-19T10:20:44.438Z,14.63
2023-04-19T10:21:44.437Z,14.63
2023-04-19T10:22:44.387Z,14.60
2023-04-19T10:23:44.388Z,14.59
2023-04-19T10:24:44.921Z,14.60
2023-04-19T10:25:44.383Z,14.60
2023-04-19T10:26:44.338Z,14.60
2023-04-19T10:27:45.487Z,14.60
2023-04-19T10:28:44.347Z,14.65
2023-04-19T10:29:44.362Z,14.65
2023-04-19T10:30:44.295Z,14.65
2023-04-19T10:31:44.355Z,14.69
2023-04-19T10:32:44.352Z,14.72
2023-04-19T10:33:44.346Z,14.72
2023-04-19T10:34:44.267Z,14.79
2023-04-19T10:35:44.278Z,14.81
2023-04-19T10:36:44.230Z,14.82
2023-04-19T10:37:44.246Z,14.81
2023-04-19T10:38:44.210Z,14.79
2023-04-19T10:39:44.270Z,14.78
2023-04-19T10:40:44.214Z,14.78
2023-04-19T10:41:44.202Z,14.79
2023-04-19T10:42:44.202Z,14.79
2023-04-19T10:43:44.193Z,14.84
2023-04-19T10:44:44.169Z,14.88
2023-04-19T10:45:44.181Z,14.91
2023-04-19T10:46:44.144Z,14.92
2023-04-19T10:47:44.179Z,14.94
2023-04-19T10:48:44.238Z,14.96
2023-04-19T10:49:44.110Z,14.99
2023-04-19T10:50:44.079Z,15.02
2023-04-19T10:51:44.104Z,15.07
2023-04-19T10:52:44.061Z,15.10
2023-04-19T10:53:44.079Z,15.10
2023-04-19T10:54:44.042Z,15.06
2023-04-19T10:55:44.053Z,15.07
2023-04-19T10:56:44.035Z,15.11
2023-04-19T10:57:44.039Z,15.14
2023-04-19T10:58:44.013Z,15.14
2023-04-19T10:59:44.005Z,15.17
2023-04-19T11:00:43.973Z,15.19
2023-04-19T11:01:44.017Z,15.24
2023-04-19T11:02:44.035Z,15.27
2023-04-19T11:03:44.290Z,15.35
2023-04-19T11:04:43.968Z,15.37
2023-04-19T11:05:43.942Z,15.37
2023-04-19T11:06:43.915Z,15.39
2023-04-19T11:07:43.930Z,15.37
2023-04-19T11:08:43.888Z,15.37
2023-04-19T11:09:43.900Z,15.42
2023-04-19T11:10:43.915Z,15.42
2023-04-19T11:11:43.881Z,15.39
2023-04-19T11:12:43.860Z,15.40
2023-04-19T11:13:43.851Z,15.42
2023-04-19T11:14:43.859Z,15.43
2023-04-19T11:15:43.901Z,15.42
2023-04-19T11:16:46.029Z,15.43
2023-04-19T11:17:43.838Z,15.46
2023-04-19T11:18:43.826Z,15.49
2023-04-19T11:19:43.782Z,15.57
2023-04-19T11:20:43.786Z,15.62
2023-04-19T11:21:43.764Z,15.65
2023-04-19T11:22:43.778Z,15.70
2023-04-19T11:23:43.745Z,15.73
2023-04-19T11:24:43.713Z,15.76
2023-04-19T11:25:43.745Z,15.83
2023-04-19T11:26:43.710Z,15.90
2023-04-19T11:27:43.717Z,15.92
2023-04-19T11:28:43.723Z,15.92
2023-04-19T11:29:43.691Z,15.98
2023-04-19T11:30:43.709Z,16.01
2023-04-19T11:31:43.759Z,16.05
2023-04-19T11:32:43.705Z,16.09
2023-04-19T11:33:43.647Z,16.15
2023-04-19T11:34:43.632Z,16.20
2023-04-19T11:35:43.632Z,16.21
2023-04-19T11:36:43.605Z,16.23
2023-04-19T11:37:43.601Z,16.24
2023-04-19T11:38:43.568Z,16.23
2023-04-19T11:39:43.580Z,16.28
2023-04-19T11:40:43.566Z,16.28
2023-04-19T11:41:43.543Z,16.28
2023-04-19T11:42:43.519Z,16.29
2023-04-19T11:43:43.551Z,16.36
2023-04-19T11:44:43.526Z,16.43
2023-04-19T11:45:43.525Z,16.49
2023-04-19T11:46:43.549Z,16.61
2023-04-19T11:47:43.641Z,16.66
2023-04-19T11:48:43.475Z,16.76
2023-04-19T11:49:43.470Z,16.78
2023-04-19T11:50:43.445Z,16.83
2023-04-19T11:51:43.475Z,16.87
2023-04-19T11:52:43.482Z,16.91
2023-04-19T11:53:43.435Z,16.94
2023-04-19T11:54:43.432Z,16.99
2023-04-19T11:55:43.385Z,16.97
2023-04-19T11:56:43.405Z,17.06
2023-04-19T11:57:43.373Z,17.11
2023-04-19T11:58:43.482Z,17.16
2023-04-19T11:59:43.347Z,17.19
2023-04-19T12:00:43.369Z,17.29
2023-04-19T12:01:43.334Z,17.30
2023-04-19T12:02:43.523Z,17.33
2023-04-19T12:03:43.527Z,17.36
2023-04-19T12:04:43.458Z,17.44
2023-04-19T12:05:43.475Z,17.48
2023-04-19T12:06:43.306Z,17.48
2023-04-19T12:07:43.275Z,17.46
2023-04-19T12:08:43.296Z,17.41
2023-04-19T12:09:43.269Z,17.44
2023-04-19T12:10:43.259Z,17.44
2023-04-19T12:11:43.218Z,17.49
2023-04-19T12:12:43.232Z,17.56
2023-04-19T12:13:43.206Z,17.63
2023-04-19T12:14:43.230Z,17.71
2023-04-19T12:15:43.262Z,17.76
2023-04-19T12:16:43.223Z,17.83
2023-04-19T12:17:54.586Z,17.82
2023-04-19T12:18:43.286Z,17.86
2023-04-19T12:19:43.137Z,17.90
2023-04-19T12:20:43.155Z,17.97
2023-04-19T12:21:43.121Z,17.98
2023-04-19T12:22:43.102Z,17.97
2023-04-19T12:23:43.087Z,17.98
2023-04-19T12:24:43.098Z,17.95
2023-04-19T12:25:43.079Z,17.98
2023-04-19T12:26:43.093Z,17.97
2023-04-19T12:27:43.068Z,17.94
2023-04-19T12:28:43.069Z,17.98
2023-04-19T12:29:43.021Z,18.04
2023-04-19T12:30:43.032Z,18.13
2023-04-19T12:31:43.026Z,18.22
2023-04-19T12:32:43.051Z,18.25
2023-04-19T12:33:42.991Z,18.35
2023-04-19T12:34:42.988Z,18.38
2023-04-19T12:35:43.026Z,18.41
2023-04-19T12:36:42.994Z,18.41
2023-04-19T12:37:42.942Z,18.41
2023-04-19T12:38:42.948Z,18.47
2023-04-19T12:39:42.948Z,18.47
2023-04-19T12:40:42.914Z,18.41
2023-04-19T12:41:42.892Z,18.40
2023-04-19T12:42:42.911Z,18.43
2023-04-19T12:43:42.891Z,18.44
2023-04-19T12:44:42.883Z,18.52
2023-04-19T12:45:42.887Z,18.56
2023-04-19T12:46:42.864Z,18.58
2023-04-19T12:47:42.875Z,18.63
2023-04-19T12:48:42.844Z,18.66
2023-04-19T12:49:43.070Z,18.78
2023-04-19T12:50:42.825Z,18.81
2023-04-19T12:51:42.859Z,18.81
2023-04-19T12:52:42.806Z,18.78
2023-04-19T12:53:42.768Z,18.83
2023-04-19T12:54:42.788Z,18.83
2023-04-19T12:55:42.778Z,18.88
2023-04-19T12:56:42.750Z,18.86
2023-04-19T12:57:42.768Z,18.84
2023-04-19T12:58:42.801Z,18.83
2023-04-19T12:59:42.767Z,18.80
2023-04-19T13:00:42.717Z,18.83
2023-04-19T13:01:42.704Z,18.84
2023-04-19T13:02:42.797Z,18.88
2023-04-19T13:03:42.866Z,18.92
2023-04-19T13:04:42.980Z,18.96
2023-04-19T13:05:42.673Z,18.95
2023-04-19T13:06:42.669Z,18.96
2023-04-19T13:07:42.622Z,18.95
2023-04-19T13:08:47.088Z,18.92
2023-04-19T13:09:42.606Z,18.92
2023-04-19T13:10:42.644Z,18.90
2023-04-19T13:11:42.582Z,18.92
2023-04-19T13:12:42.603Z,18.88
2023-04-19T13:13:42.566Z,18.86
2023-04-19T13:14:42.556Z,18.88
2023-04-19T13:15:42.618Z,18.92
2023-04-19T13:16:42.685Z,18.92
2023-04-19T13:17:42.581Z,18.93
2023-04-19T13:18:42.513Z,18.96
2023-04-19T13:19:42.499Z,18.99
2023-04-19T13:20:42.484Z,19.02
2023-04-19T13:21:42.489Z,19.07
2023-04-19T13:22:42.537Z,19.09
2023-04-19T13:23:42.482Z,19.11
2023-04-19T13:24:42.501Z,19.15
2023-04-19T13:25:42.434Z,19.16
2023-04-19T13:26:42.506Z,19.15
2023-04-19T13:27:42.402Z,19.19
2023-04-19T13:28:42.483Z,19.27
2023-04-19T13:29:42.419Z,19.31
2023-04-19T13:30:42.387Z,19.34
2023-04-19T13:31:42.513Z,19.34
2023-04-19T13:32:42.409Z,19.31
2023-04-19T13:33:42.335Z,19.34
2023-04-19T13:34:42.450Z,19.40
2023-04-19T13:35:42.341Z,19.40
2023-04-19T13:36:42.328Z,19.44
2023-04-19T13:37:42.308Z,19.47
2023-04-19T13:38:42.314Z,19.51
2023-04-19T13:39:42.333Z,19.51
2023-04-19T13:40:42.365Z,19.51
2023-04-19T13:41:42.262Z,19.56
2023-04-19T13:42:42.251Z,19.64
2023-04-19T13:43:42.248Z,19.66
2023-04-19T13:44:42.254Z,19.69
2023-04-19T13:45:42.212Z,19.73
2023-04-19T13:46:42.281Z,19.81
2023-04-19T13:47:42.201Z,19.84
2023-04-19T13:48:42.211Z,19.88
2023-04-19T13:49:42.193Z,19.89
2023-04-19T13:50:42.201Z,19.91
2023-04-19T13:51:49.748Z,19.91
2023-04-19T13:52:42.180Z,19.92
2023-04-19T13:53:42.131Z,19.92
2023-04-19T13:54:42.138Z,19.99
2023-04-19T13:55:42.139Z,20.07
2023-04-19T13:56:42.120Z,20.04
2023-04-19T13:57:42.090Z,20.02
2023-04-19T13:58:42.140Z,19.95
2023-04-19T13:59:42.061Z,19.89
2023-04-19T14:00:42.130Z,19.88
2023-04-19T14:01:42.072Z,19.95
2023-04-19T14:02:42.230Z,19.96
2023-04-19T14:03:42.189Z,20.03
2023-04-19T14:04:42.105Z,20.06
2023-04-19T14:05:42.053Z,20.07
2023-04-19T14:06:42.003Z,20.09
2023-04-19T14:07:41.995Z,20.07
2023-04-19T14:08:41.977Z,20.10
2023-04-19T14:09:41.994Z,20.16
2023-04-19T14:10:42.000Z,20.21
2023-04-19T14:11:41.948Z,20.24
2023-04-19T14:12:41.937Z,20.22
2023-04-19T14:13:41.938Z,20.09
2023-04-19T14:14:41.921Z,20.04
2023-04-19T14:15:41.902Z,20.10
2023-04-19T14:16:42.008Z,20.11
2023-04-19T14:17:41.870Z,20.16
2023-04-19T14:18:41.880Z,20.25
2023-04-19T14:19:41.856Z,20.32
2023-04-19T14:20:41.880Z,20.44
2023-04-19T14:21:41.836Z,20.51
2023-04-19T14:22:41.853Z,20.60
2023-04-19T14:23:41.810Z,20.66
2023-04-19T14:24:41.819Z,20.66
2023-04-19T14:25:41.790Z,20.63
2023-04-19T14:26:41.817Z,20.55
2023-04-19T14:27:41.762Z,20.41
2023-04-19T14:28:41.789Z,20.37
2023-04-19T14:29:41.746Z,20.29
2023-04-19T14:30:41.763Z,20.32
2023-04-19T14:31:41.788Z,20.32
2023-04-19T14:32:41.830Z,20.25
2023-04-19T14:33:41.698Z,20.26
2023-04-19T14:34:41.728Z,20.25
2023-04-19T14:35:41.670Z,20.26
2023-04-19T14:36:41.690Z,20.22
2023-04-19T14:37:41.694Z,20.22
2023-04-19T14:38:41.666Z,20.26
2023-04-19T14:39:41.643Z,20.36
2023-04-19T14:40:41.676Z,20.37
2023-04-19T14:41:41.611Z,20.43
2023-04-19T14:42:41.621Z,20.50
2023-04-19T14:43:41.611Z,20.51
2023-04-19T14:44:41.624Z,20.59
2023-04-19T14:45:41.660Z,20.67
2023-04-19T14:46:41.775Z,20.67
2023-04-19T14:47:41.583Z,20.63
2023-04-19T14:48:41.560Z,20.62
2023-04-19T14:49:41.591Z,20.58
2023-04-19T14:50:41.550Z,20.50
2023-04-19T14:51:41.510Z,20.43
2023-04-19T14:52:41.574Z,20.36
2023-04-19T14:53:41.494Z,20.36
2023-04-19T14:54:41.492Z,20.21
2023-04-19T14:55:41.493Z,20.19
2023-04-19T14:56:41.472Z,20.10
2023-04-19T14:57:41.463Z,20.00
2023-04-19T14:58:41.474Z,19.94
2023-04-19T14:59:41.438Z,19.89
2023-04-19T15:00:41.437Z,19.81
2023-04-19T15:01:41.428Z,19.67
2023-04-19T15:02:41.610Z,19.62
2023-04-19T15:03:41.734Z,19.71
2023-04-19T15:04:41.828Z,19.52
2023-04-19T15:05:41.415Z,19.47
2023-04-19T15:06:41.406Z,19.44
2023-04-19T15:07:41.332Z,19.69
2023-04-19T15:08:41.335Z,19.84
2023-04-19T15:09:41.356Z,20.02
2023-04-19T15:10:41.346Z,19.94
2023-04-19T15:11:41.321Z,19.85
2023-04-19T15:12:41.303Z,19.82
2023-04-19T15:13:41.273Z,19.73
2023-04-19T15:14:41.288Z,19.71
2023-04-19T15:15:41.316Z,20.00
2023-04-19T15:16:41.300Z,19.84
2023-04-19T15:17:41.250Z,19.76
2023-04-19T15:18:41.249Z,20.00
2023-04-19T15:19:41.207Z,20.40
2023-04-19T15:20:41.221Z,20.41
2023-04-19T15:21:41.182Z,20.25
2023-04-19T15:22:41.241Z,20.16
2023-04-19T15:23:41.177Z,20.44
2023-04-19T15:24:41.170Z,20.28
2023-04-19T15:25:41.150Z,20.09
2023-04-19T15:26:43.576Z,20.11
2023-04-19T15:27:41.135Z,19.99
2023-04-19T15:28:41.167Z,19.77
2023-04-19T15:29:41.117Z,19.64
2023-04-19T15:30:41.113Z,19.51
2023-04-19T15:31:41.108Z,19.31
2023-04-19T15:32:43.203Z,19.14
2023-04-19T15:33:41.059Z,18.92
2023-04-19T15:34:41.066Z,18.71
2023-04-19T15:35:41.036Z,18.95
2023-04-19T15:36:41.050Z,18.80
2023-04-19T15:37:41.017Z,18.65
2023-04-19T15:38:42.641Z,18.58
2023-04-19T15:39:40.995Z,18.50
2023-04-19T15:40:41.036Z,18.37
2023-04-19T15:41:40.972Z,18.35
2023-04-19T15:42:40.982Z,18.28
2023-04-19T15:43:40.953Z,18.19
2023-04-19T15:44:43.960Z,18.15
2023-04-19T15:45:40.996Z,18.77
2023-04-19T15:46:41.050Z,19.52
2023-04-19T15:47:40.930Z,20.10
2023-04-19T15:48:40.941Z,20.44
2023-04-19T15:49:40.892Z,20.00
2023-04-19T15:50:43.551Z,19.58
2023-04-19T15:51:40.985Z,19.33
2023-04-19T15:52:40.947Z,19.07
2023-04-19T15:53:40.923Z,18.71
2023-04-19T15:54:40.971Z,18.45
2023-04-19T15:55:40.828Z,18.25
2023-04-19T15:56:40.853Z,18.08
2023-04-19T15:57:40.807Z,17.95
2023-04-19T15:58:40.836Z,17.82
2023-04-19T15:59:40.789Z,17.72
2023-04-19T16:00:40.796Z,17.54
2023-04-19T16:01:40.820Z,17.44
2023-04-19T16:02:41.045Z,17.33
2023-04-19T16:03:40.956Z,17.23
2023-04-19T16:04:40.986Z,17.14
2023-04-19T16:05:40.734Z,17.06
2023-04-19T16:06:40.757Z,16.97
2023-04-19T16:07:40.721Z,16.84
2023-04-19T16:08:40.719Z,16.74
2023-04-19T16:09:40.713Z,16.66
2023-04-19T16:10:40.733Z,16.57
2023-04-19T16:11:40.709Z,16.54
2023-04-19T16:12:40.638Z,16.49
2023-04-19T16:13:40.665Z,16.43
2023-04-19T16:14:40.647Z,16.42
2023-04-19T16:15:40.665Z,16.42
2023-04-19T16:16:40.643Z,16.41
2023-04-19T16:17:40.675Z,16.36
2023-04-19T16:18:40.578Z,16.35
2023-04-19T16:19:40.584Z,16.29
2023-04-19T16:20:40.566Z,16.23
2023-04-19T16:21:40.565Z,16.16
2023-04-19T16:22:40.597Z,16.17
2023-04-19T16:23:40.553Z,16.13
2023-04-19T16:24:40.526Z,16.12
2023-04-19T16:25:40.531Z,16.09
2023-04-19T16:26:40.493Z,16.05
2023-04-19T16:27:40.504Z,16.02
2023-04-19T16:28:40.493Z,16.02
2023-04-19T16:29:40.494Z,16.01
2023-04-19T16:30:40.455Z,16.00
2023-04-19T16:31:40.465Z,16.01
2023-04-19T16:32:40.466Z,16.00
2023-04-19T16:33:40.444Z,15.97
2023-04-19T16:34:40.406Z,15.95
2023-04-19T16:35:40.452Z,15.92
2023-04-19T16:36:40.392Z,15.91
2023-04-19T16:37:40.388Z,15.90
2023-04-19T16:38:40.362Z,15.88
2023-04-19T16:39:40.368Z,15.86
2023-04-19T16:40:40.344Z,15.84
2023-04-19T16:41:40.400Z,15.83
2023-04-19T16:42:40.324Z,15.80
2023-04-19T16:43:40.322Z,15.77
2023-04-19T16:44:40.296Z,15.73
2023-04-19T16:45:40.346Z,15.67
2023-04-19T16:46:40.352Z,15.61
2023-04-19T16:47:40.379Z,15.55
2023-04-19T16:48:40.265Z,15.51
2023-04-19T16:49:40.316Z,15.46
2023-04-19T16:50:40.235Z,15.43
2023-04-19T16:51:40.307Z,15.40
2023-04-19T16:52:40.257Z,15.39
2023-04-19T16:53:40.257Z,15.37
2023-04-19T16:54:40.186Z,15.31
2023-04-19T16:55:40.203Z,15.25
2023-04-19T16:56:40.166Z,15.18
2023-04-19T16:57:40.179Z,15.14
2023-04-19T16:58:40.150Z,15.09
2023-04-19T16:59:40.166Z,15.03
2023-04-19T17:00:40.149Z,15.00
2023-04-19T17:01:40.194Z,14.99
2023-04-19T17:02:40.229Z,14.92
2023-04-19T17:03:40.233Z,14.91
2023-04-19T17:04:40.291Z,14.89
2023-04-19T17:05:40.095Z,14.89
2023-04-19T17:06:40.086Z,14.88
2023-04-19T17:07:40.088Z,14.88
2023-04-19T17:08:40.066Z,14.86
2023-04-19T17:09:40.065Z,14.84
2023-04-19T17:10:40.061Z,14.85
2023-04-19T17:11:40.051Z,14.79
2023-04-19T17:12:40.002Z,14.79
2023-04-19T17:13:40.029Z,14.72
2023-04-19T17:14:40.016Z,14.69
2023-04-19T17:15:40.056Z,14.66
2023-04-19T17:16:39.963Z,14.66
2023-04-19T17:17:40.014Z,14.65
2023-04-19T17:18:40.134Z,14.63
2023-04-19T17:19:40.195Z,14.62
2023-04-19T17:20:39.919Z,14.60
2023-04-19T17:21:40.019Z,14.59
2023-04-19T17:22:39.901Z,14.55
2023-04-19T17:23:39.920Z,14.54
2023-04-19T17:24:39.871Z,14.51
2023-04-19T17:25:39.907Z,14.50
2023-04-19T17:26:39.856Z,14.45
2023-04-19T17:27:39.848Z,14.44
2023-04-19T17:28:39.833Z,14.41